realtycalendar.ru alexa rank chart, realtycalendar.ru alexa rank daily changes

realtycalendar.ru alexa rank chart, realtycalendar.ru alexa rank daily changes

realtycalendar.ru
Actual rank:
402 037

RANK HISTORY

Date Rank Diff
2017/07/23 402 037 -6 449
2017/07/22 408 486 -200
2017/07/21 408 686 +5 769
2017/07/20 402 917 +9 424
2017/07/19 393 493 -1 983
2017/07/18 395 476 -7 906
2017/07/17 403 382 +8 739
2017/07/16 394 643 +2 161
2017/07/15 392 482 -1 772
2017/07/14 394 254 +8 316
2017/07/13 385 938 +1 433
2017/07/12 384 505 +3 494
2017/07/11 381 011 +2 182
2017/07/10 378 829 -1 240
2017/07/09 380 069 -1 673
2017/07/08 381 742 +2 650
2017/07/07 379 092 +6 508
2017/07/06 372 584 -7 726
2017/07/05 380 310 +1 243
2017/07/04 379 067 +7 132
2017/07/03 371 935 +3 145
2017/07/02 368 790 -4 383
2017/07/01 373 173 +645
2017/06/30 372 528 +8 555
2017/06/29 363 973 +131
2017/06/28 363 842 +2 196
2017/06/27 361 646 +3 518
2017/06/26 358 128 -8 057
2017/06/25 366 185 -3 275
2017/06/24 369 460 -6 394
2017/06/23 375 854 +5 415
2017/06/22 370 439 -985
2017/06/21 371 424 -9 674
2017/06/20 381 098 -6 828
2017/06/19 387 926 +2 035
2017/06/18 385 891 -378
2017/06/17 386 269 -13 916
2017/06/16 400 185 -1 402
2017/06/15 401 587 +6 577
2017/06/14 395 010 -11 223
2017/06/13 406 233 +3 379
2017/06/12 402 854 -6 724
2017/06/11 409 578 -4 763
2017/06/10 414 341 -2 321
2017/06/09 416 662 -115
2017/06/08 416 777 -5 532
2017/06/07 422 309 -9 829
2017/06/06 432 138 +854
2017/06/05 431 284 -5 995
2017/06/04 437 279 +32 930
2017/06/03 404 349 -3 793
2017/06/02 408 142 +9 508
2017/06/01 398 634 -21
2017/05/31 398 655 -2 276
2017/05/30 400 931 -12 676
2017/05/29 413 607 -773
2017/05/28 414 380 -4 577
2017/05/27 418 957 -5 261
2017/05/26 424 218 -986
2017/05/25 425 204 -680
2017/05/24 425 884

WIDGET FOR YOUR SITE

DOMAINS WITH THE NEAREST RANK

Domain Rank
kineticsnoise.com 402 032
agora-santander.com 402 033
goodlifezen.com 402 034
capinfo.com.cn 402 035
vipmag.by 402 036
realtycalendar.ru 402 037
1pokrovi.ru 402 038
sizzler.com 402 039
taboo-comics.com 402 040
mywirelessexpress.com 402 041
antary.de 402 042

DOMAINS WITH THE NEAREST RANK BY TLD .ru

Domain Rank
murmanout.ru 401 852
loginvovchyk.ru 401 894
guitarparts5150.ru 401 937
echoekb.ru 401 956
paparazzi-pro.ru 401 967
realtycalendar.ru 402 037
1pokrovi.ru 402 038
thevampirediaries.ru 402 062
bytrf.ru 402 087
medafarm.ru 402 138
internist.ru 402 180